createdAt,value
2023-03-05T00:01:33.465Z,51.94
2023-03-05T00:04:03.942Z,51.49
2023-03-05T00:06:33.096Z,51.43
2023-03-05T00:09:01.691Z,51.39
2023-03-05T00:11:31.720Z,51.89
2023-03-05T00:14:01.450Z,51.69
2023-03-05T00:16:30.540Z,51.72
2023-03-05T00:19:00.251Z,51.98
2023-03-05T00:21:31.690Z,51.95
2023-03-05T00:24:01.583Z,52.14
2023-03-05T00:26:29.751Z,52.29
2023-03-05T00:28:59.186Z,52.20
2023-03-05T00:31:31.078Z,52.19
2023-03-05T00:34:03.729Z,52.60
2023-03-05T00:36:33.210Z,52.17
2023-03-05T00:39:01.343Z,52.50
2023-03-05T00:41:29.360Z,52.70
2023-03-05T00:43:57.292Z,52.37
2023-03-05T00:46:27.487Z,52.55
2023-03-05T00:48:55.969Z,52.51
2023-03-05T00:51:24.648Z,52.61
2023-03-05T00:53:54.135Z,52.70
2023-03-05T00:56:22.552Z,52.81
2023-03-05T00:58:50.492Z,52.69
2023-03-05T01:01:18.450Z,52.87
2023-03-05T01:03:46.704Z,52.77
2023-03-05T01:06:16.533Z,52.97
2023-03-05T01:08:44.783Z,52.99
2023-03-05T01:11:14.378Z,53.28
2023-03-05T01:13:42.766Z,53.17
2023-03-05T01:16:11.314Z,53.08
2023-03-05T01:18:39.700Z,53.55
2023-03-05T01:21:07.822Z,53.55
2023-03-05T01:23:37.458Z,53.24
2023-03-05T01:26:06.597Z,53.33
2023-03-05T01:28:38.175Z,53.47
2023-03-05T01:31:09.155Z,53.41
2023-03-05T01:33:37.313Z,53.34
2023-03-05T01:36:09.081Z,53.91
2023-03-05T01:38:37.004Z,53.87
2023-03-05T01:41:05.066Z,53.74
2023-03-05T01:43:33.287Z,53.87
2023-03-05T01:46:36.821Z,54.54
2023-03-05T01:49:10.181Z,54.21
2023-03-05T01:51:42.090Z,54.47
2023-03-05T01:54:12.788Z,54.12
2023-03-05T01:56:42.180Z,54.14
2023-03-05T01:59:10.515Z,54.73
2023-03-05T02:01:42.521Z,54.51
2023-03-05T02:04:14.761Z,54.74
2023-03-05T02:06:44.295Z,55.02
2023-03-05T02:09:12.584Z,54.58
2023-03-05T02:11:41.084Z,55.02
2023-03-05T02:14:10.503Z,54.41
2023-03-05T02:16:40.239Z,54.54
2023-03-05T02:19:09.965Z,54.99
2023-03-05T02:21:41.184Z,54.90
2023-03-05T02:24:12.699Z,54.90
2023-03-05T02:26:40.757Z,54.84
2023-03-05T02:29:11.860Z,55.40
2023-03-05T02:31:40.183Z,55.19
2023-03-05T02:34:08.217Z,55.12
2023-03-05T02:36:36.144Z,55.16
2023-03-05T02:39:05.863Z,55.17
2023-03-05T02:41:33.891Z,55.62
2023-03-05T02:44:02.007Z,55.49
2023-03-05T02:46:30.088Z,55.42
2023-03-05T02:48:57.974Z,55.70
2023-03-05T02:51:25.843Z,55.58
2023-03-05T02:53:53.800Z,56.06
2023-03-05T02:56:23.143Z,55.98
2023-03-05T02:58:50.995Z,55.80
2023-03-05T03:01:19.095Z,56.37
2023-03-05T03:03:47.110Z,56.05
2023-03-05T03:06:15.118Z,56.07
2023-03-05T03:08:43.024Z,56.04
2023-03-05T03:11:13.397Z,56.23
2023-03-05T03:13:42.847Z,56.49
2023-03-05T03:16:13.686Z,56.43
2023-03-05T03:18:41.799Z,56.42
2023-03-05T03:21:09.709Z,56.26
2023-03-05T03:23:37.807Z,56.95
2023-03-05T03:26:05.919Z,56.79
2023-03-05T03:28:33.772Z,56.60
2023-03-05T03:31:03.279Z,56.46
2023-03-05T03:33:31.120Z,56.55
2023-03-05T03:35:59.049Z,56.74
2023-03-05T03:38:27.280Z,56.94
2023-03-05T03:40:55.075Z,57.16
2023-03-05T03:43:23.089Z,57.29
2023-03-05T03:45:51.182Z,57.15
2023-03-05T03:48:20.370Z,56.76
2023-03-05T03:50:48.313Z,57.44
2023-03-05T03:53:17.619Z,57.62
2023-03-05T03:55:46.525Z,57.50
2023-03-05T03:58:14.448Z,57.25
2023-03-05T04:00:42.949Z,57.52
2023-03-05T04:03:10.973Z,57.57
2023-03-05T04:05:40.165Z,57.58
2023-03-05T04:08:12.172Z,57.65
2023-03-05T04:10:40.132Z,57.60
2023-03-05T04:13:08.335Z,57.77
2023-03-05T04:15:36.575Z,58.19
2023-03-05T04:18:04.576Z,57.92
2023-03-05T04:20:32.418Z,57.70
2023-03-05T04:23:01.915Z,57.87
2023-03-05T04:25:29.804Z,57.89
2023-03-05T04:27:57.612Z,58.07
2023-03-05T04:30:25.752Z,57.83
2023-03-05T04:32:53.659Z,58.36
2023-03-05T04:35:21.778Z,58.27
2023-03-05T04:37:49.898Z,58.20
2023-03-05T04:40:19.846Z,58.53
2023-03-05T04:42:47.737Z,58.35
2023-03-05T04:45:17.323Z,58.79
2023-03-05T04:47:45.193Z,58.63
2023-03-05T04:50:14.463Z,58.99
2023-03-05T04:52:43.523Z,58.84
2023-03-05T04:55:12.835Z,58.43
2023-03-05T04:57:42.652Z,58.90
2023-03-05T05:00:14.475Z,58.90
2023-03-05T05:02:42.998Z,58.56
2023-03-05T05:05:13.320Z,58.60
2023-03-05T05:07:41.261Z,58.91
2023-03-05T05:10:11.269Z,59.02
2023-03-05T05:12:39.359Z,58.89
2023-03-05T05:15:10.308Z,58.94
2023-03-05T05:17:38.263Z,58.81
2023-03-05T05:20:07.855Z,59.29
2023-03-05T05:22:36.357Z,59.06
2023-03-05T05:25:05.187Z,59.33
2023-03-05T05:27:33.025Z,59.49
2023-03-05T05:30:01.223Z,59.05
2023-03-05T05:32:30.938Z,58.99
2023-03-05T05:34:59.796Z,58.79
2023-03-05T05:37:28.704Z,59.35
2023-03-05T05:39:56.580Z,59.35
2023-03-05T05:42:26.308Z,59.48
2023-03-05T05:44:55.530Z,59.39
2023-03-05T05:47:23.460Z,59.27
2023-03-05T05:49:52.704Z,59.43
2023-03-05T05:52:20.694Z,59.53
2023-03-05T05:54:48.767Z,59.44
2023-03-05T05:57:16.925Z,59.94
2023-03-05T05:59:44.897Z,59.77
2023-03-05T06:02:12.917Z,59.85
2023-03-05T06:04:40.819Z,59.43
2023-03-05T06:07:10.354Z,59.54
2023-03-05T06:09:38.348Z,59.87
2023-03-05T06:12:07.339Z,59.87
2023-03-05T06:14:35.285Z,59.76
2023-03-05T06:17:03.221Z,60.09
2023-03-05T06:19:31.043Z,59.85
2023-03-05T06:21:58.969Z,60.25
2023-03-05T06:24:28.613Z,60.29
2023-03-05T06:26:56.460Z,60.09
2023-03-05T06:29:24.678Z,59.81
2023-03-05T06:31:52.625Z,59.88
2023-03-05T06:34:20.426Z,60.29
2023-03-05T06:36:48.448Z,59.90
2023-03-05T06:39:16.387Z,60.00
2023-03-05T06:41:45.788Z,60.25
2023-03-05T06:44:13.719Z,59.54
2023-03-05T06:46:41.582Z,59.34
2023-03-05T06:49:09.825Z,59.02
2023-03-05T06:51:40.269Z,58.65
2023-03-05T06:54:10.040Z,58.55
2023-03-05T06:56:39.452Z,58.55
2023-03-05T06:59:09.012Z,58.19
2023-03-05T07:01:37.423Z,58.57
2023-03-05T07:04:06.861Z,58.66
2023-03-05T07:06:36.759Z,58.68
2023-03-05T07:09:06.477Z,59.22
2023-03-05T07:11:35.176Z,59.94
2023-03-05T07:14:03.626Z,61.45
2023-03-05T07:16:34.448Z,62.21
2023-03-05T07:19:04.842Z,61.87
2023-03-05T07:21:36.883Z,61.26
2023-03-05T07:24:06.924Z,61.01
2023-03-05T07:26:38.145Z,60.30
2023-03-05T07:29:06.014Z,59.67
2023-03-05T07:31:35.599Z,60.07
2023-03-05T07:34:06.599Z,58.88
2023-03-05T07:36:35.157Z,58.74
2023-03-05T07:39:04.951Z,57.65
2023-03-05T07:41:33.153Z,58.04
2023-03-05T07:44:01.388Z,56.75
2023-03-05T07:46:32.139Z,56.53
2023-03-05T07:49:01.944Z,55.70
2023-03-05T07:51:29.973Z,54.99
2023-03-05T07:53:59.641Z,54.76
2023-03-05T07:56:31.822Z,54.21
2023-03-05T07:59:00.110Z,53.48
2023-03-05T08:01:30.315Z,53.04
2023-03-05T08:03:58.318Z,52.94
2023-03-05T08:06:27.592Z,51.05
2023-03-05T08:08:55.676Z,50.22
2023-03-05T08:11:23.741Z,50.40
2023-03-05T08:13:52.049Z,50.82
2023-03-05T08:16:22.205Z,50.45
2023-03-05T08:18:50.205Z,49.79
2023-03-05T08:21:19.847Z,49.63
2023-03-05T08:23:49.526Z,49.05
2023-03-05T08:26:20.528Z,48.49
2023-03-05T08:28:48.731Z,47.35
2023-03-05T08:31:18.017Z,46.88
2023-03-05T08:33:46.277Z,45.89
2023-03-05T08:36:14.369Z,46.00
2023-03-05T08:38:43.496Z,45.50
2023-03-05T08:41:12.914Z,45.89
2023-03-05T08:43:40.735Z,45.90
2023-03-05T08:46:09.552Z,45.87
2023-03-05T08:48:37.536Z,46.12
2023-03-05T08:51:09.401Z,45.89
2023-03-05T08:53:37.548Z,46.46
2023-03-05T08:56:05.827Z,46.36
2023-03-05T08:58:35.060Z,46.88
2023-03-05T09:01:02.940Z,46.88
2023-03-05T09:03:31.019Z,47.72
2023-03-05T09:06:02.007Z,47.75
2023-03-05T09:08:30.297Z,47.81
2023-03-05T09:10:58.354Z,47.92
2023-03-05T09:13:26.268Z,48.91
2023-03-05T09:15:59.722Z,48.79
2023-03-05T09:18:28.467Z,49.08
2023-03-05T09:20:56.603Z,49.52
2023-03-05T09:23:25.534Z,49.45
2023-03-05T09:25:53.411Z,49.35
2023-03-05T09:28:21.231Z,48.44
2023-03-05T09:30:49.367Z,48.28
2023-03-05T09:33:18.591Z,48.36
2023-03-05T09:35:48.318Z,49.06
2023-03-05T09:38:16.407Z,47.97
2023-03-05T09:40:53.140Z,47.12
2023-03-05T09:43:31.803Z,45.42
2023-03-05T09:46:07.903Z,45.31
2023-03-05T09:48:50.783Z,45.39
2023-03-05T09:51:24.325Z,44.89
2023-03-05T09:54:00.552Z,45.55
2023-03-05T09:56:33.293Z,45.77
2023-03-05T09:59:05.278Z,45.71
2023-03-05T10:01:39.895Z,45.57
2023-03-05T10:04:12.857Z,45.47
2023-03-05T10:06:49.899Z,45.96
2023-03-05T10:09:28.535Z,45.26
2023-03-05T10:12:00.302Z,46.35
2023-03-05T10:14:31.069Z,45.94
2023-03-05T10:17:36.609Z,45.59
2023-03-05T10:20:22.234Z,44.46
2023-03-05T10:23:02.533Z,44.48
2023-03-05T10:25:45.835Z,44.49
2023-03-05T10:28:20.213Z,44.32
2023-03-05T10:31:03.891Z,44.04
2023-03-05T10:33:39.768Z,43.34
2023-03-05T10:36:27.991Z,42.80
2023-03-05T10:39:32.646Z,41.95
2023-03-05T10:42:08.272Z,43.08
2023-03-05T10:44:41.610Z,42.86
2023-03-05T10:47:17.875Z,42.80
2023-03-05T10:49:51.419Z,42.31
2023-03-05T10:52:23.761Z,41.75
2023-03-05T10:54:51.596Z,42.89
2023-03-05T10:57:22.809Z,41.82
2023-03-05T10:59:53.520Z,41.81
2023-03-05T11:02:22.697Z,41.76
2023-03-05T11:04:51.538Z,41.59
2023-03-05T11:07:38.245Z,41.92
2023-03-05T11:10:15.966Z,41.98
2023-03-05T11:12:44.510Z,40.70
2023-03-05T11:15:31.277Z,40.56
2023-03-05T11:18:31.544Z,41.09
2023-03-05T11:21:10.058Z,40.79
2023-03-05T11:23:39.891Z,40.91
2023-03-05T11:26:22.522Z,39.96
2023-03-05T11:28:59.316Z,40.19
2023-03-05T11:31:29.141Z,40.58
2023-03-05T11:34:01.152Z,39.31
2023-03-05T11:36:31.946Z,38.69
2023-03-05T11:39:11.648Z,38.48
2023-03-05T11:41:42.265Z,39.08
2023-03-05T11:44:15.095Z,38.20
2023-03-05T11:46:45.915Z,39.09
2023-03-05T11:49:19.185Z,39.34
2023-03-05T11:51:54.709Z,40.69
2023-03-05T11:54:29.881Z,40.86
2023-03-05T11:56:57.851Z,41.49
2023-03-05T11:59:30.690Z,41.87
2023-03-05T12:01:59.578Z,42.16
2023-03-05T12:04:28.566Z,42.67
2023-03-05T12:07:00.588Z,42.85
2023-03-05T12:09:41.076Z,42.44
2023-03-05T12:12:19.793Z,42.61
2023-03-05T12:14:54.008Z,42.60
2023-03-05T12:17:29.049Z,42.72
2023-03-05T12:20:04.937Z,42.92
2023-03-05T12:22:37.379Z,43.31
2023-03-05T12:25:27.088Z,43.48
2023-03-05T12:27:55.437Z,43.10
2023-03-05T12:31:00.739Z,43.06
2023-03-05T12:33:37.216Z,42.56
2023-03-05T12:36:33.984Z,42.81
2023-03-05T12:39:02.281Z,42.68
2023-03-05T12:41:40.549Z,43.78
2023-03-05T12:44:26.409Z,44.83
2023-03-05T12:47:19.393Z,46.17
2023-03-05T12:49:50.296Z,45.75
2023-03-05T12:52:27.597Z,46.06
2023-03-05T12:55:18.982Z,46.45
2023-03-05T12:57:51.830Z,46.68
2023-03-05T13:00:26.827Z,47.11
2023-03-05T13:02:58.725Z,47.15
2023-03-05T13:05:31.080Z,47.05
2023-03-05T13:08:15.880Z,47.36
2023-03-05T13:10:45.062Z,47.46
2023-03-05T13:13:16.586Z,47.80
2023-03-05T13:15:47.688Z,47.98
2023-03-05T13:18:21.908Z,47.81
2023-03-05T13:20:56.300Z,47.55
2023-03-05T13:23:26.666Z,47.76
2023-03-05T13:26:00.622Z,47.92
2023-03-05T13:28:30.570Z,48.06
2023-03-05T13:31:00.519Z,48.36
2023-03-05T13:33:30.701Z,48.46
2023-03-05T13:35:58.750Z,48.14
2023-03-05T13:38:32.918Z,48.84
2023-03-05T13:41:21.125Z,50.24
2023-03-05T13:43:52.454Z,50.27
2023-03-05T13:46:28.765Z,50.84
2023-03-05T13:48:57.375Z,51.09
2023-03-05T13:51:25.781Z,52.17
2023-03-05T13:53:54.729Z,51.32
2023-03-05T13:56:22.872Z,50.58
2023-03-05T13:58:55.064Z,50.89
2023-03-05T14:01:29.984Z,51.15
2023-03-05T14:04:01.733Z,50.79
2023-03-05T14:06:31.160Z,51.28
2023-03-05T14:09:07.573Z,50.98
2023-03-05T14:11:36.522Z,51.36
2023-03-05T14:14:10.912Z,50.67
2023-03-05T14:16:39.103Z,50.63
2023-03-05T14:19:09.261Z,50.81
2023-03-05T14:21:48.538Z,51.28
2023-03-05T14:24:22.837Z,51.42
2023-03-05T14:26:53.563Z,51.43
2023-03-05T14:29:25.230Z,51.51
2023-03-05T14:31:55.934Z,51.39
2023-03-05T14:34:27.996Z,52.28
2023-03-05T14:37:00.278Z,53.01
2023-03-05T14:39:31.402Z,53.51
2023-03-05T14:42:15.806Z,53.63
2023-03-05T14:44:45.020Z,53.78
2023-03-05T14:47:12.981Z,53.70
2023-03-05T14:49:40.996Z,54.18
2023-03-05T14:52:13.167Z,54.46
2023-03-05T14:54:41.379Z,54.61
2023-03-05T14:57:14.279Z,55.30
2023-03-05T14:59:42.749Z,55.88
2023-03-05T15:02:18.904Z,56.99
2023-03-05T15:04:48.753Z,56.91
2023-03-05T15:07:22.094Z,57.19
2023-03-05T15:09:50.208Z,57.94
2023-03-05T15:12:18.671Z,57.92
2023-03-05T15:14:46.488Z,58.81
2023-03-05T15:17:22.079Z,59.43
2023-03-05T15:19:50.356Z,58.65
2023-03-05T15:22:18.898Z,59.21
2023-03-05T15:24:46.893Z,59.78
2023-03-05T15:27:14.891Z,59.39
2023-03-05T15:29:42.842Z,60.03
2023-03-05T15:32:11.154Z,60.08
2023-03-05T15:34:40.388Z,60.00
2023-03-05T15:37:08.762Z,60.37
2023-03-05T15:39:36.844Z,59.99
2023-03-05T15:42:06.386Z,60.52
2023-03-05T15:44:34.519Z,60.25
2023-03-05T15:47:02.495Z,61.10
2023-03-05T15:49:30.325Z,61.14
2023-03-05T15:51:59.938Z,61.06
2023-03-05T15:54:27.980Z,60.57
2023-03-05T15:56:55.943Z,60.07
2023-03-05T15:59:23.887Z,59.83
2023-03-05T16:01:52.856Z,59.54
2023-03-05T16:04:20.729Z,59.64
2023-03-05T16:06:51.075Z,59.81
2023-03-05T16:09:22.207Z,59.96
2023-03-05T16:11:51.595Z,59.93
2023-03-05T16:14:23.557Z,59.97
2023-03-05T16:16:54.279Z,59.88
2023-03-05T16:19:24.709Z,60.60
2023-03-05T16:21:52.809Z,60.87
2023-03-05T16:24:22.081Z,60.52
2023-03-05T16:26:50.026Z,60.94
2023-03-05T16:29:18.006Z,60.20
2023-03-05T16:31:46.898Z,60.36
2023-03-05T16:34:16.459Z,60.47
2023-03-05T16:36:50.340Z,59.84
2023-03-05T16:39:18.310Z,59.85
2023-03-05T16:41:47.694Z,59.79
2023-03-05T16:44:15.507Z,60.09
2023-03-05T16:46:49.267Z,60.34
2023-03-05T16:49:17.926Z,60.32
2023-03-05T16:51:45.751Z,60.37
2023-03-05T16:54:13.780Z,60.42
2023-03-05T16:56:41.710Z,60.79
2023-03-05T16:59:11.747Z,61.25
2023-03-05T17:01:39.876Z,61.04
2023-03-05T17:04:07.901Z,60.96
2023-03-05T17:06:35.785Z,61.34
2023-03-05T17:09:04.677Z,61.64
2023-03-05T17:11:32.895Z,61.99
2023-03-05T17:14:00.762Z,62.05
2023-03-05T17:16:30.119Z,62.11
2023-03-05T17:18:58.245Z,62.50
2023-03-05T17:21:26.144Z,63.40
2023-03-05T17:23:54.803Z,64.09
2023-03-05T17:26:22.729Z,64.65
2023-03-05T17:28:51.294Z,64.85
2023-03-05T17:31:19.971Z,65.77
2023-03-05T17:33:49.327Z,66.11
2023-03-05T17:36:22.978Z,66.60
2023-03-05T17:38:51.440Z,66.98
2023-03-05T17:41:20.469Z,67.46
2023-03-05T17:43:48.525Z,67.61
2023-03-05T17:46:17.268Z,67.44
2023-03-05T17:48:46.153Z,67.54
2023-03-05T17:51:17.566Z,68.05
2023-03-05T17:53:45.902Z,68.06
2023-03-05T17:56:16.049Z,67.98
2023-03-05T17:58:44.425Z,68.35
2023-03-05T18:01:12.463Z,68.20
2023-03-05T18:03:40.524Z,68.22
2023-03-05T18:06:08.825Z,68.33
2023-03-05T18:08:38.092Z,68.70
2023-03-05T18:11:06.284Z,68.60
2023-03-05T18:13:34.251Z,68.95
2023-03-05T18:16:02.354Z,68.88
2023-03-05T18:18:30.280Z,68.95
2023-03-05T18:20:58.191Z,68.62
2023-03-05T18:23:26.113Z,68.86
2023-03-05T18:25:55.524Z,69.08
2023-03-05T18:28:23.552Z,68.96
2023-03-05T18:30:51.470Z,68.91
2023-03-05T18:33:20.976Z,69.28
2023-03-05T18:35:52.472Z,69.13
2023-03-05T18:38:20.658Z,69.27
2023-03-05T18:40:51.211Z,69.21
2023-03-05T18:43:22.123Z,69.25
2023-03-05T18:45:50.221Z,69.33
2023-03-05T18:48:18.222Z,69.33
2023-03-05T18:50:46.945Z,69.24
2023-03-05T18:53:15.212Z,69.36
2023-03-05T18:55:43.467Z,69.24
2023-03-05T18:58:14.258Z,69.28
2023-03-05T19:00:46.947Z,69.63
2023-03-05T19:03:15.336Z,69.50
2023-03-05T19:05:43.354Z,69.56
2023-03-05T19:08:11.617Z,69.72
2023-03-05T19:10:40.240Z,69.70
2023-03-05T19:13:18.752Z,69.82
2023-03-05T19:15:48.171Z,69.83
2023-03-05T19:18:16.057Z,69.88
2023-03-05T19:20:43.892Z,69.61
2023-03-05T19:23:12.034Z,69.93
2023-03-05T19:25:41.363Z,69.87
2023-03-05T19:28:09.604Z,69.97
2023-03-05T19:30:38.273Z,70.19
2023-03-05T19:33:07.479Z,70.28
2023-03-05T19:35:35.334Z,70.21
2023-03-05T19:38:03.508Z,70.18
2023-03-05T19:40:31.312Z,69.96
2023-03-05T19:42:59.539Z,70.20
2023-03-05T19:45:27.680Z,70.23
2023-03-05T19:47:55.480Z,70.27
2023-03-05T19:50:24.703Z,70.34
2023-03-05T19:52:52.745Z,70.64
2023-03-05T19:55:20.756Z,70.72
2023-03-05T19:57:48.751Z,70.79
2023-03-05T20:00:17.288Z,71.17
2023-03-05T20:02:45.121Z,71.20
2023-03-05T20:05:13.265Z,71.21
2023-03-05T20:07:42.550Z,71.66
2023-03-05T20:10:11.683Z,71.50
2023-03-05T20:12:39.559Z,71.57
2023-03-05T20:15:08.276Z,71.70
2023-03-05T20:17:36.128Z,71.75
2023-03-05T20:20:03.967Z,71.81
2023-03-05T20:22:32.125Z,72.01
2023-03-05T20:25:01.310Z,72.10
2023-03-05T20:27:29.137Z,72.28
2023-03-05T20:29:57.165Z,72.28
2023-03-05T20:32:25.052Z,72.21
2023-03-05T20:34:52.906Z,72.49
2023-03-05T20:37:20.891Z,72.39
2023-03-05T20:39:48.741Z,72.41
2023-03-05T20:42:17.926Z,72.55
2023-03-05T20:44:45.929Z,72.70
2023-03-05T20:47:27.634Z,72.69
2023-03-05T20:49:55.967Z,72.39
2023-03-05T20:52:23.800Z,72.39
2023-03-05T20:54:51.646Z,72.72
2023-03-05T20:57:21.158Z,72.57
2023-03-05T20:59:49.036Z,72.46
2023-03-05T21:02:18.427Z,72.61
2023-03-05T21:04:46.587Z,72.68
2023-03-05T21:07:14.519Z,72.68
2023-03-05T21:09:42.359Z,72.80
2023-03-05T21:12:11.973Z,73.32
2023-03-05T21:14:41.167Z,73.20
2023-03-05T21:17:09.579Z,73.52
2023-03-05T21:19:40.089Z,73.39
2023-03-05T21:22:07.951Z,73.40
2023-03-05T21:24:52.190Z,73.39
2023-03-05T21:27:20.266Z,73.08
2023-03-05T21:29:49.480Z,73.44
2023-03-05T21:32:17.538Z,73.32
2023-03-05T21:34:45.620Z,73.30
2023-03-05T21:37:13.590Z,73.51
2023-03-05T21:39:41.651Z,73.32
2023-03-05T21:42:11.301Z,73.78
2023-03-05T21:44:39.121Z,73.95
2023-03-05T21:47:08.420Z,73.94
2023-03-05T21:49:36.392Z,73.71
2023-03-05T21:52:09.230Z,73.67
2023-03-05T21:54:37.450Z,73.92
2023-03-05T21:57:06.079Z,73.75
2023-03-05T21:59:34.228Z,73.63
2023-03-05T22:02:03.223Z,74.18
2023-03-05T22:04:32.467Z,74.07
2023-03-05T22:07:00.534Z,73.94
2023-03-05T22:09:28.651Z,74.28
2023-03-05T22:11:58.519Z,74.05
2023-03-05T22:14:26.580Z,73.93
2023-03-05T22:16:57.222Z,74.14
2023-03-05T22:19:25.144Z,74.63
2023-03-05T22:21:54.514Z,74.20
2023-03-05T22:24:25.258Z,74.53
2023-03-05T22:26:53.305Z,74.48
2023-03-05T22:29:21.219Z,74.25
2023-03-05T22:31:49.724Z,74.63
2023-03-05T22:34:17.703Z,74.65
2023-03-05T22:36:45.573Z,74.60
2023-03-05T22:39:15.069Z,74.76
2023-03-05T22:41:43.040Z,74.38
2023-03-05T22:44:10.947Z,74.66
2023-03-05T22:46:39.511Z,74.52
2023-03-05T22:49:07.367Z,74.53
2023-03-05T22:51:35.284Z,74.56
2023-03-05T22:54:03.636Z,74.94
2023-03-05T22:56:32.889Z,74.67
2023-03-05T22:59:00.778Z,74.67
2023-03-05T23:01:28.770Z,74.68
2023-03-05T23:04:03.435Z,74.41
2023-03-05T23:06:31.623Z,74.74
2023-03-05T23:08:59.463Z,74.44
2023-03-05T23:11:27.370Z,74.75
2023-03-05T23:13:56.904Z,74.44
2023-03-05T23:16:24.738Z,74.71
2023-03-05T23:18:52.605Z,74.62
2023-03-05T23:21:20.613Z,74.77
2023-03-05T23:23:48.452Z,74.75
2023-03-05T23:26:16.343Z,74.54
2023-03-05T23:28:44.337Z,74.70
2023-03-05T23:31:13.544Z,74.43
2023-03-05T23:33:41.454Z,74.40
2023-03-05T23:36:09.876Z,74.60
2023-03-05T23:38:37.849Z,74.71
2023-03-05T23:41:09.503Z,74.83
2023-03-05T23:43:37.783Z,74.55
2023-03-05T23:46:11.781Z,74.58
2023-03-05T23:48:42.722Z,74.33
2023-03-05T23:51:11.369Z,74.75
2023-03-05T23:53:39.244Z,74.92
2023-03-05T23:56:11.425Z,74.72
2023-03-05T23:58:40.083Z,75.09
